^^

STATION HISTORICAL DATA

Daily Summary for July 20, 2018 Units:  English    Metric   Both
« Previous Day
Next Day »
Daily Weekly Monthly Yearly Custom
  Current: High: Low: Average:
Temperature: 75.3 °F 75.5 °F 67.8 °F 71 °F
Dew Point: 68.3 °F 70.4 °F 65.7 °F 67.6 °F
Humidity: 79 % 95 % 77 % 89 %
Wind Speed: 10.4 mph 23.0 mph 0.0 mph 7.7 mph
Wind Gust: 3.6 mph 10.2 mph - -
Wind:West - - WSW
Pressure: 29.69 in 29.70 in 29.61 in -
Precipitation: 0.08 in      
Historical Graphs
 
 
Tabular Data for July 20, 2018
Time Temperature Dew Point Pressure Wind Wind Speed Wind Gust Humidity Rainfall Rate (Hourly) solar Conditions
00:04 68.4 °F 66.6 °F 29.66 in Calm     94 % 0.09 in 0.00 W/m2 RA
00:09 68.9 °F 67.1 °F 29.66 in Calm     94 % 0.08 in 0.00 W/m2 RA
00:14 69.4 °F 67.9 °F 29.66 in Calm     95 % 0.08 in 0.00 W/m2 RA
00:19 69.9 °F 68.4 °F 29.66 in Calm     95 % 0.07 in 0.00 W/m2 RA
00:24 70.2 °F 68.7 °F 29.66 in SSW 6.9 mph   95 % 0.06 in 0.00 W/m2 FEW
00:29 70.4 °F 68.9 °F 29.66 in SSW 6.9 mph 2.4 mph 95 % 0.05 in 0.00 W/m2 FEW
00:34 70.5 °F 69.0 °F 29.66 in SW 3.5 mph   95 % 0.04 in 0.00 W/m2 FEW
00:39 70.5 °F 69.0 °F 29.66 in Calm     95 % 0.04 in 0.00 W/m2 FEW
00:44 70.4 °F 68.9 °F 29.66 in Calm   0.2 mph 95 % 0.03 in 0.00 W/m2 FEW
00:49 70.4 °F 68.9 °F 29.65 in Calm     95 % 0.03 in 0.00 W/m2 FEW
00:54 70.3 °F 68.8 °F 29.65 in SW 4.0 mph 1.6 mph 95 % 0.02 in 0.00 W/m2 FEW
00:59 70.1 °F 68.3 °F 29.65 in SSW 9.2 mph 2.0 mph 94 % 0.02 in 0.00 W/m2 FEW
01:04 69.7 °F 67.9 °F 29.65 in SSW 6.9 mph 0.8 mph 94 % 0.01 in 0.00 W/m2 BKN
01:09 69.4 °F 67.6 °F 29.64 in SW 4.6 mph   94 % 0.01 in 0.00 W/m2 BKN
01:14 69.2 °F 67.4 °F 29.64 in Calm     94 % 0.00 in 0.00 W/m2 BKN
01:19 69.2 °F 67.4 °F 29.64 in Calm     94 % 0.00 in 0.00 W/m2 BKN
01:24 69.3 °F 67.5 °F 29.64 in SSW 5.0 mph 1.4 mph 94 % 0.00 in 0.00 W/m2 BKN
01:29 69.2 °F 67.4 °F 29.64 in SSW 4.0 mph 1.3 mph 94 % 0.00 in 0.00 W/m2 BKN
01:34 69.1 °F 67.3 °F 29.64 in SSW 5.8 mph   94 % 0.00 in 0.00 W/m2 BKN
01:39 69.0 °F 67.2 °F 29.64 in SSW 2.3 mph 0.1 mph 94 % 0.00 in 0.00 W/m2 BKN
01:44 69.0 °F 67.2 °F 29.64 in SW 2.3 mph 0.1 mph 94 % 0.00 in 0.00 W/m2 BKN
01:49 69.0 °F 67.2 °F 29.64 in Calm     94 % 0.00 in 0.00 W/m2 BKN
01:54 69.0 °F 67.2 °F 29.64 in Calm     94 % 0.00 in 0.00 W/m2 BKN
01:59 68.9 °F 67.1 °F 29.64 in Calm     94 % 0.01 in 0.00 W/m2 RA
02:04 69.0 °F 67.2 °F 29.66 in Calm   0.1 mph 94 % 0.02 in 0.00 W/m2 RA
02:09 68.9 °F 67.1 °F 29.66 in Calm     94 % 0.03 in 0.00 W/m2 RA
02:14 68.8 °F 67.0 °F 29.65 in West 5.8 mph   94 % 0.03 in 0.00 W/m2 RA
02:19 68.8 °F 67.0 °F 29.66 in Calm     94 % 0.04 in 0.00 W/m2 RA
02:24 68.8 °F 67.0 °F 29.66 in Calm     94 % 0.04 in 0.00 W/m2 RA
02:29 68.8 °F 67.0 °F 29.65 in Calm     94 % 0.04 in 0.00 W/m2 SCT
02:34 68.9 °F 67.1 °F 29.65 in Calm     94 % 0.04 in 0.00 W/m2 SCT
02:39 68.9 °F 67.1 °F 29.65 in Calm     94 % 0.04 in 0.00 W/m2 SCT
02:44 69.0 °F 67.2 °F 29.65 in Calm     94 % 0.05 in 0.00 W/m2 RA
02:49 69.1 °F 67.3 °F 29.65 in Calm     94 % 0.05 in 0.00 W/m2 RA
02:54 69.2 °F 67.4 °F 29.64 in SW 10.4 mph 1.1 mph 94 % 0.05 in 0.00 W/m2 OVC
02:59 69.2 °F 67.4 °F 29.64 in Calm   0.2 mph 94 % 0.04 in 0.00 W/m2 OVC
03:04 69.2 °F 67.4 °F 29.64 in SW 7.0 mph 1.7 mph 94 % 0.04 in 0.00 W/m2 RA
03:09 69.2 °F 67.4 °F 29.64 in SW 9.2 mph 6.3 mph 94 % 0.03 in 0.00 W/m2 RA
03:14 69.2 °F 67.4 °F 29.64 in SW 6.9 mph 3.0 mph 94 % 0.03 in 0.00 W/m2
03:19 69.1 °F 67.3 °F 29.64 in SW 8.1 mph 2.5 mph 94 % 0.02 in 0.00 W/m2
03:24 69.0 °F 67.2 °F 29.63 in SW 4.6 mph 4.0 mph 94 % 0.02 in 0.00 W/m2
03:29 68.9 °F 67.1 °F 29.63 in SW 8.1 mph 3.4 mph 94 % 0.02 in 0.00 W/m2
03:34 68.8 °F 67.0 °F 29.63 in SW 5.8 mph 3.8 mph 94 % 0.02 in 0.00 W/m2
03:39 68.6 °F 66.8 °F 29.63 in SW 10.4 mph 2.1 mph 94 % 0.02 in 0.00 W/m2
03:44 68.6 °F 66.8 °F 29.63 in SW 6.9 mph 6.0 mph 94 % 0.01 in 0.00 W/m2
03:49 68.5 °F 66.7 °F 29.63 in SW 11.5 mph 1.9 mph 94 % 0.01 in 0.00 W/m2
03:54 68.4 °F 66.6 °F 29.63 in SW 9.0 mph 2.3 mph 94 % 0.01 in 0.00 W/m2 OVC
03:59 68.4 °F 66.6 °F 29.63 in SW 8.1 mph 3.8 mph 94 % 0.01 in 0.00 W/m2 OVC
04:04 68.3 °F 66.5 °F 29.62 in SW 6.9 mph 2.3 mph 94 % 0.00 in 0.00 W/m2 BKN
04:09 68.3 °F 66.5 °F 29.62 in SW 9.2 mph 4.4 mph 94 % 0.00 in 0.00 W/m2 BKN
04:14 68.2 °F 66.4 °F 29.63 in SW 4.0 mph 2.4 mph 94 % 0.00 in 0.00 W/m2 BKN
04:19 68.2 °F 66.4 °F 29.62 in SSW 5.8 mph 3.9 mph 94 % 0.00 in 0.00 W/m2 BKN
04:24 68.2 °F 66.4 °F 29.62 in SW 7.0 mph 2.2 mph 94 % 0.00 in 0.00 W/m2 BKN
04:29 68.1 °F 66.3 °F 29.62 in SW 6.0 mph 2.6 mph 94 % 0.01 in 0.00 W/m2 RA
04:34 68.1 °F 66.3 °F 29.62 in SW 3.5 mph 3.0 mph 94 % 0.01 in 0.00 W/m2 RA
04:39 68.1 °F 66.3 °F 29.62 in SW 7.0 mph 2.8 mph 94 % 0.01 in 0.00 W/m2 BKN
04:44 68.0 °F 66.2 °F 29.62 in SW 5.8 mph   94 % 0.01 in 0.00 W/m2 BKN
04:49 68.0 °F 66.2 °F 29.62 in SW 3.5 mph 1.9 mph 94 % 0.01 in 0.00 W/m2 BKN
04:54 68.0 °F 66.2 °F 29.62 in SW 4.6 mph 0.6 mph 94 % 0.01 in 0.00 W/m2 BKN
04:59 67.9 °F 66.1 °F 29.62 in SW 5.8 mph 1.7 mph 94 % 0.01 in 0.00 W/m2 BKN
05:04 67.9 °F 66.1 °F 29.62 in SW 4.6 mph 1.1 mph 94 % 0.01 in 0.00 W/m2 BKN
05:09 67.9 °F 66.1 °F 29.61 in SW 5.8 mph 2.1 mph 94 % 0.01 in 0.00 W/m2 BKN
05:14 67.9 °F 66.1 °F 29.61 in SW 8.0 mph 0.6 mph 94 % 0.01 in 0.00 W/m2 BKN
05:19 67.8 °F 66.0 °F 29.61 in SW 7.0 mph 4.4 mph 94 % 0.01 in 0.00 W/m2 BKN
05:24 67.9 °F 66.1 °F 29.62 in Calm   0.7 mph 94 % 0.01 in 0.00 W/m2 BKN
05:29 67.9 °F 66.1 °F 29.61 in WSW 4.6 mph 1.8 mph 94 % 0.00 in 0.00 W/m2 BKN
05:34 67.9 °F 66.1 °F 29.62 in SW 3.5 mph 2.6 mph 94 % 0.00 in 0.00 W/m2 BKN
05:39 67.9 °F 66.1 °F 29.61 in SW 8.1 mph 2.8 mph 94 % 0.00 in 0.00 W/m2 BKN
05:44 67.9 °F 66.1 °F 29.62 in SW 5.8 mph 1.2 mph 94 % 0.00 in 0.00 W/m2 BKN
05:49 67.9 °F 66.1 °F 29.62 in SW 4.6 mph 2.5 mph 94 % 0.00 in 0.00 W/m2 BKN
05:54 68.0 °F 66.2 °F 29.62 in SW 8.0 mph 1.2 mph 94 % 0.00 in 0.00 W/m2 BKN
05:59 68.0 °F 66.2 °F 29.62 in SW 6.0 mph 0.1 mph 94 % 0.00 in 5.00 W/m2 BKN
06:04 68.1 °F 66.3 °F 29.62 in SW 3.5 mph   94 % 0.00 in 7.00 W/m2 BKN
06:09 68.1 °F 66.3 °F 29.62 in SW 3.5 mph 2.7 mph 94 % 0.00 in 9.00 W/m2 BKN
06:14 68.2 °F 66.4 °F 29.62 in SW 3.5 mph 2.0 mph 94 % 0.00 in 11.00 W/m2 BKN
06:19 68.2 °F 66.4 °F 29.62 in SW 3.5 mph 2.1 mph 94 % 0.00 in 12.00 W/m2 BKN
06:24 68.3 °F 66.5 °F 29.62 in SW 4.6 mph 0.8 mph 94 % 0.00 in 16.00 W/m2 BKN
06:29 68.3 °F 66.5 °F 29.62 in SW 3.0 mph 0.4 mph 94 % 0.00 in 21.00 W/m2 BKN
06:34 68.3 °F 66.2 °F 29.62 in SW 3.5 mph 1.8 mph 93 % 0.00 in 23.00 W/m2 BKN
06:39 68.4 °F 66.3 °F 29.62 in Calm     93 % 0.00 in 19.00 W/m2 BKN
06:44 68.3 °F 66.2 °F 29.62 in SW 7.0 mph 2.5 mph 93 % 0.00 in 16.00 W/m2 OVC
06:49 68.4 °F 66.3 °F 29.62 in SW 4.0 mph 1.9 mph 93 % 0.00 in 16.00 W/m2 OVC
06:54 68.3 °F 66.2 °F 29.62 in SW 3.0 mph 1.1 mph 93 % 0.00 in 23.00 W/m2 OVC
06:59 68.4 °F 66.3 °F 29.62 in Calm     93 % 0.00 in 32.00 W/m2 OVC
07:04 68.4 °F 66.3 °F 29.62 in Calm     93 % 0.00 in 26.00 W/m2 OVC
07:09 68.4 °F 66.3 °F 29.62 in SW 3.5 mph 1.7 mph 93 % 0.00 in 40.00 W/m2 OVC
07:14 68.5 °F 66.4 °F 29.62 in SW 4.6 mph 1.5 mph 93 % 0.00 in 33.00 W/m2 OVC
07:19 68.5 °F 66.4 °F 29.63 in Calm   0.4 mph 93 % 0.00 in 33.00 W/m2 OVC
07:24 68.5 °F 66.4 °F 29.63 in WSW 4.0 mph 0.5 mph 93 % 0.00 in 21.00 W/m2 OVC
07:29 68.3 °F 66.2 °F 29.63 in WSW 2.3 mph   93 % 0.00 in 26.00 W/m2 OVC
07:34 68.4 °F 66.3 °F 29.63 in WSW 3.5 mph 0.8 mph 93 % 0.00 in 44.00 W/m2 OVC
07:39 68.2 °F 65.8 °F 29.63 in WSW 3.5 mph 2.6 mph 92 % 0.00 in 58.00 W/m2 OVC
07:44 68.4 °F 66.0 °F 29.63 in WSW 2.3 mph 1.8 mph 92 % 0.00 in 60.00 W/m2 OVC
07:49 68.4 °F 66.0 °F 29.63 in West 4.6 mph 1.9 mph 92 % 0.00 in 84.00 W/m2 OVC
07:54 68.6 °F 65.9 °F 29.63 in Calm     91 % 0.00 in 153.00 W/m2 OVC
07:59 68.8 °F 66.1 °F 29.63 in WSW 6.9 mph 2.6 mph 91 % 0.00 in 160.00 W/m2 OVC
08:04 69.0 °F 65.9 °F 29.63 in WSW 2.3 mph 0.9 mph 90 % 0.00 in 165.00 W/m2 OVC
08:09 69.4 °F 66.7 °F 29.63 in WSW 3.0 mph 0.4 mph 91 % 0.00 in 207.00 W/m2 OVC
08:14 69.5 °F 66.4 °F 29.63 in SW 5.0 mph 3.2 mph 90 % 0.00 in 125.00 W/m2 OVC
08:19 69.5 °F 66.1 °F 29.63 in SW 8.1 mph 2.2 mph 89 % 0.00 in 86.00 W/m2 OVC
08:24 69.5 °F 66.1 °F 29.63 in WSW 4.6 mph 0.6 mph 89 % 0.00 in 69.00 W/m2 OVC
08:29 69.6 °F 66.2 °F 29.63 in WSW 7.0 mph 1.8 mph 89 % 0.00 in 49.00 W/m2 OVC
08:34 69.4 °F 65.7 °F 29.64 in WSW 3.5 mph 0.1 mph 88 % 0.00 in 72.00 W/m2 OVC
08:39 69.4 °F 65.7 °F 29.63 in WSW 9.0 mph 5.0 mph 88 % 0.00 in 158.00 W/m2 OVC
08:44 69.3 °F 65.9 °F 29.63 in WSW 4.6 mph 1.8 mph 89 % 0.00 in 171.00 W/m2 OVC
08:49 69.3 °F 65.9 °F 29.63 in WSW 11.5 mph 4.1 mph 89 % 0.00 in 142.00 W/m2 OVC
08:54 69.2 °F 66.1 °F 29.63 in WSW 11.5 mph 2.0 mph 90 % 0.00 in 236.00 W/m2 OVC
08:59 69.3 °F 66.6 °F 29.64 in WSW 11.5 mph 4.0 mph 91 % 0.00 in 257.00 W/m2 OVC
09:04 69.2 °F 66.5 °F 29.64 in WSW 11.0 mph 1.8 mph 91 % 0.00 in 74.00 W/m2 OVC
09:09 69.0 °F 66.3 °F 29.64 in WSW 10.4 mph 2.1 mph 91 % 0.00 in 69.00 W/m2 OVC
09:14 68.8 °F 66.1 °F 29.64 in West 11.5 mph 3.5 mph 91 % 0.00 in 65.00 W/m2 OVC
09:19 68.8 °F 66.1 °F 29.64 in Calm     91 % 0.00 in 70.00 W/m2 OVC
09:24 68.8 °F 66.4 °F 29.64 in Calm     92 % 0.00 in 58.00 W/m2 OVC
09:29 68.7 °F 66.3 °F 29.64 in West 12.7 mph 2.1 mph 92 % 0.00 in 79.00 W/m2 OVC
09:34 68.7 °F 66.3 °F 29.64 in WSW 11.5 mph   92 % 0.00 in 79.00 W/m2 OVC
09:39 68.6 °F 66.2 °F 29.64 in West 8.1 mph 0.3 mph 92 % 0.00 in 19.00 W/m2 OVC
09:44 68.7 °F 66.6 °F 29.64 in West 8.1 mph 5.2 mph 93 % 0.00 in 76.00 W/m2 -RA
09:49 68.7 °F 66.6 °F 29.64 in Calm     93 % 0.00 in 104.00 W/m2 -RA
09:54 68.7 °F 66.6 °F 29.64 in WSW 9.2 mph 1.7 mph 93 % 0.00 in 90.00 W/m2 -RA
09:59 68.7 °F 66.6 °F 29.64 in WSW 12.7 mph 1.7 mph 93 % 0.00 in 95.00 W/m2 -RA
10:04 68.7 °F 66.9 °F 29.64 in WSW 8.1 mph   94 % 0.00 in 123.00 W/m2 OVC
10:09 68.8 °F 67.0 °F 29.64 in West 10.0 mph 2.5 mph 94 % 0.00 in 190.00 W/m2 OVC
10:14 69.0 °F 67.2 °F 29.64 in West 10.4 mph   94 % 0.00 in 193.00 W/m2 OVC
10:19 69.4 °F 67.6 °F 29.64 in WSW 11.5 mph 5.5 mph 94 % 0.00 in 345.00 W/m2 OVC
10:24 69.8 °F 68.0 °F 29.64 in West 10.4 mph 3.1 mph 94 % 0.00 in 230.00 W/m2 OVC
10:29 70.0 °F 68.2 °F 29.65 in WNW 8.1 mph 0.5 mph 94 % 0.00 in 218.00 W/m2 OVC
10:34 70.1 °F 68.3 °F 29.65 in WNW 4.0 mph 1.6 mph 94 % 0.00 in 158.00 W/m2 OVC
10:39 70.1 °F 68.3 °F 29.65 in West 11.5 mph 1.4 mph 94 % 0.00 in 236.00 W/m2 OVC
10:44 70.2 °F 68.1 °F 29.65 in West 7.0 mph 0.6 mph 93 % 0.00 in 183.00 W/m2 OVC
10:49 70.3 °F 68.2 °F 29.65 in West 3.0 mph 4.5 mph 93 % 0.00 in 346.00 W/m2 OVC
10:54 70.9 °F 69.1 °F 29.65 in WSW 12.7 mph 4.7 mph 94 % 0.00 in 478.00 W/m2 OVC
10:59 72.0 °F 70.2 °F 29.65 in West 11.5 mph 1.4 mph 94 % 0.00 in 570.00 W/m2 OVC
11:04 72.5 °F 70.4 °F 29.65 in WNW 14.0 mph 5.0 mph 93 % 0.00 in 343.00 W/m2 OVC
11:09 72.4 °F 69.6 °F 29.65 in WNW 5.0 mph 1.7 mph 91 % 0.00 in 230.00 W/m2 OVC
11:14 72.0 °F 68.9 °F 29.65 in West 9.0 mph 3.4 mph 90 % 0.00 in 193.00 W/m2 OVC
11:19 71.9 °F 68.8 °F 29.65 in NW 9.2 mph 4.0 mph 90 % 0.00 in 213.00 W/m2 OVC
11:24 71.7 °F 68.3 °F 29.66 in NW 15.0 mph 0.1 mph 89 % 0.00 in 229.00 W/m2 OVC
11:29 71.7 °F 68.3 °F 29.66 in WNW 1.2 mph   89 % 0.00 in 371.00 W/m2 OVC
11:34 72.2 °F 68.8 °F 29.66 in NW 16.1 mph 1.2 mph 89 % 0.00 in 364.00 W/m2 OVC
11:39 72.9 °F 68.8 °F 29.66 in NW 13.0 mph 5.9 mph 87 % 0.00 in 584.00 W/m2 OVC
11:44 73.5 °F 69.1 °F 29.66 in WNW 12.0 mph 7.1 mph 86 % 0.00 in 309.00 W/m2 OVC
11:49 73.1 °F 68.3 °F 29.66 in West 11.5 mph 3.3 mph 85 % 0.00 in 301.00 W/m2 OVC
11:54 73.0 °F 68.2 °F 29.66 in WNW 11.5 mph 6.3 mph 85 % 0.00 in 462.00 W/m2 OVC
11:59 73.7 °F 69.6 °F 29.66 in WNW 9.2 mph 0.6 mph 87 % 0.00 in 401.00 W/m2 OVC
12:04 73.9 °F 69.1 °F 29.66 in West 15.0 mph 3.3 mph 85 % 0.00 in 459.00 W/m2 OVC
12:09 74.1 °F 69.6 °F 29.66 in West 3.5 mph 1.3 mph 86 % 0.00 in 561.00 W/m2 OVC
12:14 74.3 °F 69.5 °F 29.66 in WNW 7.0 mph 2.0 mph 85 % 0.00 in 443.00 W/m2 OVC
12:19 74.4 °F 69.2 °F 29.67 in NW 9.2 mph 0.5 mph 84 % 0.00 in 308.00 W/m2 OVC
12:24 74.4 °F 69.2 °F 29.66 in WNW 23.0 mph 6.7 mph 84 % 0.00 in 594.00 W/m2 OVC
12:29 74.3 °F 68.8 °F 29.67 in West 15.0 mph 5.8 mph 83 % 0.00 in 311.00 W/m2 OVC
12:34 74.0 °F 68.9 °F 29.67 in WNW 2.3 mph 4.1 mph 84 % 0.00 in 258.00 W/m2 OVC
12:39 73.4 °F 68.3 °F 29.67 in WNW 8.1 mph 1.8 mph 84 % 0.00 in 325.00 W/m2 OVC
12:44 73.3 °F 68.9 °F 29.67 in WNW 11.0 mph 5.9 mph 86 % 0.00 in 432.00 W/m2 OVC
12:49 73.4 °F 69.0 °F 29.67 in West 8.1 mph 3.9 mph 86 % 0.00 in 446.00 W/m2 OVC
12:54 73.9 °F 69.4 °F 29.67 in West 12.7 mph 7.4 mph 86 % 0.00 in 601.00 W/m2 OVC
12:59 74.5 °F 69.7 °F 29.67 in WNW 11.5 mph 2.3 mph 85 % 0.00 in 499.00 W/m2 OVC
13:04 74.7 °F 69.2 °F 29.67 in WNW 15.0 mph 5.4 mph 83 % 0.00 in 499.00 W/m2 OVC
13:09 74.9 °F 69.7 °F 29.67 in WNW 13.8 mph 1.4 mph 84 % 0.00 in 452.00 W/m2 OVC
13:14 74.7 °F 68.8 °F 29.68 in NW 18.4 mph 6.6 mph 82 % 0.00 in 357.00 W/m2 OVC
13:19 74.5 °F 68.6 °F 29.68 in WNW 11.5 mph 3.2 mph 82 % 0.00 in 306.00 W/m2 OVC
13:24 74.3 °F 68.4 °F 29.68 in WNW 19.6 mph 4.0 mph 82 % 0.00 in 264.00 W/m2 OVC
13:29 74.0 °F 68.2 °F 29.68 in WNW 19.6 mph 1.2 mph 82 % 0.00 in 287.00 W/m2 OVC
13:34 73.8 °F 68.0 °F 29.67 in West 11.5 mph 7.0 mph 82 % 0.00 in 237.00 W/m2 OVC
13:39 73.7 °F 67.9 °F 29.68 in WNW 12.7 mph 7.2 mph 82 % 0.00 in 248.00 W/m2 OVC
13:44 73.6 °F 68.1 °F 29.67 in WNW 4.6 mph   83 % 0.00 in 357.00 W/m2 OVC
13:49 73.9 °F 68.8 °F 29.67 in WNW 6.9 mph 1.9 mph 84 % 0.00 in 422.00 W/m2 OVC
13:54 74.3 °F 68.8 °F 29.68 in West 19.0 mph 2.4 mph 83 % 0.00 in 533.00 W/m2 OVC
13:59 74.7 °F 68.8 °F 29.68 in West 10.0 mph 6.8 mph 82 % 0.00 in 420.00 W/m2 OVC
14:04 74.9 °F 69.0 °F 29.68 in WNW 13.8 mph 5.0 mph 82 % 0.00 in 297.00 W/m2 OVC
14:09 74.5 °F 68.3 °F 29.68 in WNW 12.7 mph 1.9 mph 81 % 0.00 in 202.00 W/m2 OVC
14:14 74.0 °F 68.2 °F 29.68 in WNW 9.2 mph 4.8 mph 82 % 0.00 in 200.00 W/m2 OVC
14:19 73.6 °F 67.8 °F 29.68 in West 13.0 mph 6.6 mph 82 % 0.00 in 83.00 W/m2 OVC
14:24 73.3 °F 68.2 °F 29.68 in West 18.4 mph 5.3 mph 84 % 0.00 in 271.00 W/m2 OVC
14:29 73.5 °F 68.4 °F 29.68 in WNW 14.0 mph 4.1 mph 84 % 0.00 in 229.00 W/m2 OVC
14:34 73.4 °F 68.3 °F 29.67 in WNW 11.0 mph 6.7 mph 84 % 0.00 in 302.00 W/m2 OVC
14:39 73.5 °F 68.7 °F 29.67 in West 12.7 mph 2.7 mph 85 % 0.00 in 399.00 W/m2 OVC
14:44 74.4 °F 69.6 °F 29.67 in West 11.5 mph 1.7 mph 85 % 0.00 in 635.00 W/m2 OVC
14:49 75.0 °F 69.8 °F 29.67 in West 16.1 mph 8.3 mph 84 % 0.00 in 524.00 W/m2 OVC
14:54 75.1 °F 69.2 °F 29.68 in West 11.5 mph 0.9 mph 82 % 0.00 in 401.00 W/m2 OVC
14:59 74.7 °F 68.8 °F 29.68 in West 20.7 mph 6.9 mph 82 % 0.00 in 380.00 W/m2 OVC
15:04 74.4 °F 68.5 °F 29.68 in WNW 21.9 mph 8.0 mph 82 % 0.00 in 432.00 W/m2 OVC
15:09 74.4 °F 68.9 °F 29.68 in WNW 16.1 mph 3.1 mph 83 % 0.00 in 610.00 W/m2 OVC
15:14 74.9 °F 69.0 °F 29.68 in WNW 13.8 mph 3.3 mph 82 % 0.00 in 374.00 W/m2 OVC
15:19 74.9 °F 68.7 °F 29.68 in West 11.0 mph 7.0 mph 81 % 0.00 in 336.00 W/m2 OVC
15:24 74.8 °F 68.6 °F 29.68 in West 2.3 mph 0.8 mph 81 % 0.00 in 283.00 W/m2 OVC
15:29 74.7 °F 68.8 °F 29.68 in West 12.7 mph 1.2 mph 82 % 0.00 in 306.00 W/m2 OVC
15:34 74.6 °F 68.4 °F 29.68 in West 13.8 mph 6.0 mph 81 % 0.00 in 250.00 W/m2 OVC
15:39 74.5 °F 68.6 °F 29.68 in WNW 17.3 mph 2.1 mph 82 % 0.00 in 306.00 W/m2 OVC
15:44 74.4 °F 68.5 °F 29.68 in West 9.0 mph 2.9 mph 82 % 0.00 in 339.00 W/m2 OVC
15:49 74.4 °F 68.5 °F 29.68 in West 11.5 mph 1.5 mph 82 % 0.00 in 304.00 W/m2 OVC
15:54 74.4 °F 68.5 °F 29.68 in West 10.4 mph 2.0 mph 82 % 0.00 in 255.00 W/m2 OVC
15:59 74.2 °F 68.7 °F 29.69 in West 11.5 mph 1.9 mph 83 % 0.00 in 253.00 W/m2 OVC
16:04 74.0 °F 68.5 °F 29.69 in West 8.1 mph 6.1 mph 83 % 0.00 in 294.00 W/m2 OVC
16:09 74.0 °F 68.5 °F 29.68 in West 19.6 mph 1.8 mph 83 % 0.00 in 278.00 W/m2 OVC
16:14 74.0 °F 68.5 °F 29.68 in Calm     83 % 0.00 in 309.00 W/m2 OVC
16:19 74.1 °F 68.6 °F 29.69 in WSW 9.2 mph   83 % 0.00 in 295.00 W/m2 OVC
16:24 74.2 °F 68.7 °F 29.69 in West 7.0 mph 2.9 mph 83 % 0.00 in 281.00 W/m2 OVC
16:29 74.1 °F 68.3 °F 29.69 in WSW 15.0 mph 6.7 mph 82 % 0.00 in 278.00 W/m2 OVC
16:34 74.1 °F 68.3 °F 29.69 in West 8.0 mph 4.7 mph 82 % 0.00 in 297.00 W/m2 OVC
16:39 74.4 °F 68.9 °F 29.69 in West 11.5 mph 3.0 mph 83 % 0.00 in 281.00 W/m2 OVC
16:44 74.3 °F 68.4 °F 29.69 in WNW 11.5 mph 3.5 mph 82 % 0.00 in 134.00 W/m2 OVC
16:49 74.0 °F 68.2 °F 29.69 in West 9.2 mph 4.5 mph 82 % 0.00 in 135.00 W/m2 OVC
16:54 73.9 °F 68.4 °F 29.69 in West 8.1 mph 2.0 mph 83 % 0.00 in 287.00 W/m2 OVC
16:59 74.0 °F 68.5 °F 29.69 in West 12.7 mph 8.4 mph 83 % 0.00 in 278.00 W/m2 OVC
17:04 74.2 °F 68.7 °F 29.69 in Calm     83 % 0.00 in 276.00 W/m2 OVC
17:10 74.4 °F 68.5 °F 29.69 in West 13.8 mph 4.4 mph 82 % 0.00 in 243.00 W/m2 OVC
17:14 74.3 °F 68.4 °F 29.69 in West 8.1 mph 1.0 mph 82 % 0.00 in 223.00 W/m2 OVC
17:19 74.4 °F 68.5 °F 29.69 in WNW 15.0 mph 4.8 mph 82 % 0.00 in 178.00 W/m2 OVC
17:24 74.2 °F 68.3 °F 29.69 in West 10.4 mph 5.4 mph 82 % 0.00 in 244.00 W/m2 OVC
17:29 74.2 °F 68.3 °F 29.69 in West 19.6 mph 3.1 mph 82 % 0.00 in 204.00 W/m2 OVC
17:34 74.1 °F 67.9 °F 29.69 in West 10.4 mph 5.7 mph 81 % 0.00 in 183.00 W/m2 OVC
17:39 74.0 °F 67.8 °F 29.69 in WSW 6.9 mph 0.5 mph 81 % 0.00 in 151.00 W/m2 OVC
17:44 74.2 °F 68.3 °F 29.69 in WSW 12.7 mph 2.0 mph 82 % 0.00 in 390.00 W/m2 OVC
17:49 74.7 °F 68.5 °F 29.69 in West 9.2 mph 1.1 mph 81 % 0.00 in 308.00 W/m2 OVC
17:54 74.9 °F 68.3 °F 29.69 in West 16.1 mph 8.9 mph 80 % 0.00 in 227.00 W/m2 OVC
17:59 74.9 °F 68.3 °F 29.69 in West 10.4 mph 4.0 mph 80 % 0.00 in 199.00 W/m2 OVC
18:04 74.8 °F 67.8 °F 29.69 in WNW 8.1 mph 3.9 mph 79 % 0.00 in 102.00 W/m2 OVC
18:09 74.8 °F 68.2 °F 29.70 in WNW 11.5 mph 3.1 mph 80 % 0.00 in 301.00 W/m2 OVC
18:14 74.9 °F 68.3 °F 29.69 in WNW 1.2 mph 0.2 mph 80 % 0.00 in 144.00 W/m2 OVC
18:19 75.1 °F 68.5 °F 29.69 in West 15.0 mph 10.2 mph 80 % 0.00 in 204.00 W/m2 OVC
18:24 75.1 °F 68.5 °F 29.69 in West 6.9 mph 2.3 mph 80 % 0.00 in 162.00 W/m2 OVC
18:29 75.4 °F 68.4 °F 29.69 in WNW 9.2 mph 0.3 mph 79 % 0.00 in 257.00 W/m2 OVC
18:34 75.5 °F 67.8 °F 29.70 in NW 8.1 mph 0.4 mph 77 % 0.00 in 114.00 W/m2 OVC
18:39 75.5 °F 68.2 °F 29.69 in West 8.0 mph 4.0 mph 78 % 0.00 in 155.00 W/m2 OVC
18:44 75.3 °F 68.3 °F 29.69 in West 10.4 mph 3.6 mph 79 % 0.00 in 69.00 W/m2 OVC
Compliments of Weather Underground - 2 mb